sensor_id;sensor_type;location;lat;lon;timestamp;P1;durP1;ratioP1;P2;durP2;ratioP2
82495;SDS011;72133;42.522;24.800;2024-02-16T00:00:57;6.53;;;3.42;;
82495;SDS011;72133;42.522;24.800;2024-02-16T00:03:23;5.55;;;3.72;;
82495;SDS011;72133;42.522;24.800;2024-02-16T00:05:49;6.10;;;4.28;;
82495;SDS011;72133;42.522;24.800;2024-02-16T00:08:17;4.93;;;3.47;;
82495;SDS011;72133;42.522;24.800;2024-02-16T00:10:43;5.40;;;3.67;;
82495;SDS011;72133;42.522;24.800;2024-02-16T00:13:09;5.13;;;3.60;;
82495;SDS011;72133;42.522;24.800;2024-02-16T00:15:34;6.65;;;4.22;;
82495;SDS011;72133;42.522;24.800;2024-02-16T00:18:00;6.28;;;3.58;;
82495;SDS011;72133;42.522;24.800;2024-02-16T00:20:25;4.90;;;3.33;;
82495;SDS011;72133;42.522;24.800;2024-02-16T00:22:51;5.20;;;3.45;;
82495;SDS011;72133;42.522;24.800;2024-02-16T00:25:16;5.60;;;3.95;;
82495;SDS011;72133;42.522;24.800;2024-02-16T00:27:43;6.57;;;4.13;;
82495;SDS011;72133;42.522;24.800;2024-02-16T00:30:09;5.85;;;3.88;;
82495;SDS011;72133;42.522;24.800;2024-02-16T00:32:38;5.72;;;3.95;;
82495;SDS011;72133;42.522;24.800;2024-02-16T00:35:04;5.20;;;3.40;;
82495;SDS011;72133;42.522;24.800;2024-02-16T00:37:29;5.55;;;4.03;;
82495;SDS011;72133;42.522;24.800;2024-02-16T00:39:55;5.78;;;4.20;;
82495;SDS011;72133;42.522;24.800;2024-02-16T00:42:21;4.70;;;3.63;;
82495;SDS011;72133;42.522;24.800;2024-02-16T00:44:51;5.53;;;3.90;;
82495;SDS011;72133;42.522;24.800;2024-02-16T00:47:17;5.57;;;3.90;;
82495;SDS011;72133;42.522;24.800;2024-02-16T00:49:43;5.57;;;4.00;;
82495;SDS011;72133;42.522;24.800;2024-02-16T00:52:08;5.60;;;3.88;;
82495;SDS011;72133;42.522;24.800;2024-02-16T00:54:35;5.15;;;3.75;;
82495;SDS011;72133;42.522;24.800;2024-02-16T00:57:01;5.43;;;3.80;;
82495;SDS011;72133;42.522;24.800;2024-02-16T00:59:30;5.60;;;4.13;;
82495;SDS011;72133;42.522;24.800;2024-02-16T01:01:56;5.32;;;4.03;;
82495;SDS011;72133;42.522;24.800;2024-02-16T01:04:22;5.38;;;3.50;;
82495;SDS011;72133;42.522;24.800;2024-02-16T01:06:48;5.07;;;3.83;;
82495;SDS011;72133;42.522;24.800;2024-02-16T01:09:13;5.38;;;3.80;;
82495;SDS011;72133;42.522;24.800;2024-02-16T01:11:42;6.13;;;4.20;;
82495;SDS011;72133;42.522;24.800;2024-02-16T01:14:08;5.20;;;3.45;;
82495;SDS011;72133;42.522;24.800;2024-02-16T01:16:33;4.85;;;3.83;;
82495;SDS011;72133;42.522;24.800;2024-02-16T01:19:00;5.80;;;4.20;;
82495;SDS011;72133;42.522;24.800;2024-02-16T01:21:26;5.70;;;3.50;;
82495;SDS011;72133;42.522;24.800;2024-02-16T01:23:52;5.90;;;3.85;;
82495;SDS011;72133;42.522;24.800;2024-02-16T01:26:17;5.35;;;4.00;;
82495;SDS011;72133;42.522;24.800;2024-02-16T01:28:43;5.22;;;3.83;;
82495;SDS011;72133;42.522;24.800;2024-02-16T01:31:09;6.22;;;4.10;;
82495;SDS011;72133;42.522;24.800;2024-02-16T01:33:35;5.90;;;4.25;;
82495;SDS011;72133;42.522;24.800;2024-02-16T01:36:02;7.10;;;3.90;;
82495;SDS011;72133;42.522;24.800;2024-02-16T01:38:28;5.32;;;3.80;;
82495;SDS011;72133;42.522;24.800;2024-02-16T01:40:53;5.35;;;3.75;;
82495;SDS011;72133;42.522;24.800;2024-02-16T01:43:22;7.28;;;4.00;;
82495;SDS011;72133;42.522;24.800;2024-02-16T01:45:48;5.43;;;3.63;;
82495;SDS011;72133;42.522;24.800;2024-02-16T01:48:14;4.72;;;3.72;;
82495;SDS011;72133;42.522;24.800;2024-02-16T01:50:42;5.18;;;3.90;;
82495;SDS011;72133;42.522;24.800;2024-02-16T01:53:07;6.88;;;4.35;;
82495;SDS011;72133;42.522;24.800;2024-02-16T01:55:34;6.68;;;4.22;;
82495;SDS011;72133;42.522;24.800;2024-02-16T01:57:59;5.72;;;4.00;;
82495;SDS011;72133;42.522;24.800;2024-02-16T02:00:25;5.72;;;3.85;;
82495;SDS011;72133;42.522;24.800;2024-02-16T02:02:51;5.43;;;4.05;;
82495;SDS011;72133;42.522;24.800;2024-02-16T02:05:17;5.80;;;4.18;;
82495;SDS011;72133;42.522;24.800;2024-02-16T02:07:43;5.80;;;4.03;;
82495;SDS011;72133;42.522;24.800;2024-02-16T02:10:09;6.03;;;4.38;;
82495;SDS011;72133;42.522;24.800;2024-02-16T02:12:37;5.15;;;3.88;;
82495;SDS011;72133;42.522;24.800;2024-02-16T02:15:04;5.90;;;4.10;;
82495;SDS011;72133;42.522;24.800;2024-02-16T02:17:30;5.45;;;4.03;;
82495;SDS011;72133;42.522;24.800;2024-02-16T02:19:55;6.05;;;4.10;;
82495;SDS011;72133;42.522;24.800;2024-02-16T02:22:21;5.13;;;4.28;;
82495;SDS011;72133;42.522;24.800;2024-02-16T02:24:47;6.35;;;4.45;;
82495;SDS011;72133;42.522;24.800;2024-02-16T02:27:16;5.97;;;4.10;;
82495;SDS011;72133;42.522;24.800;2024-02-16T02:29:42;6.40;;;4.30;;
82495;SDS011;72133;42.522;24.800;2024-02-16T02:32:08;5.80;;;4.43;;
82495;SDS011;72133;42.522;24.800;2024-02-16T02:34:33;6.03;;;4.38;;
82495;SDS011;72133;42.522;24.800;2024-02-16T02:36:59;6.63;;;4.20;;
82495;SDS011;72133;42.522;24.800;2024-02-16T02:39:25;6.18;;;4.03;;
82495;SDS011;72133;42.522;24.800;2024-02-16T02:41:50;5.68;;;4.20;;
82495;SDS011;72133;42.522;24.800;2024-02-16T02:44:16;6.90;;;4.57;;
82495;SDS011;72133;42.522;24.800;2024-02-16T02:46:42;7.05;;;4.90;;
82495;SDS011;72133;42.522;24.800;2024-02-16T02:49:08;6.03;;;4.53;;
82495;SDS011;72133;42.522;24.800;2024-02-16T02:51:33;6.63;;;4.30;;
82495;SDS011;72133;42.522;24.800;2024-02-16T02:53:59;6.13;;;4.28;;
82495;SDS011;72133;42.522;24.800;2024-02-16T02:56:25;6.38;;;4.25;;
82495;SDS011;72133;42.522;24.800;2024-02-16T02:58:50;6.68;;;4.55;;
82495;SDS011;72133;42.522;24.800;2024-02-16T03:01:16;6.28;;;4.38;;
82495;SDS011;72133;42.522;24.800;2024-02-16T03:03:44;10.07;;;5.13;;
82495;SDS011;72133;42.522;24.800;2024-02-16T03:06:10;7.50;;;4.47;;
82495;SDS011;72133;42.522;24.800;2024-02-16T03:08:35;6.07;;;4.57;;
82495;SDS011;72133;42.522;24.800;2024-02-16T03:11:01;6.78;;;4.60;;
82495;SDS011;72133;42.522;24.800;2024-02-16T03:13:27;6.80;;;5.18;;
82495;SDS011;72133;42.522;24.800;2024-02-16T03:15:53;7.30;;;4.55;;
82495;SDS011;72133;42.522;24.800;2024-02-16T03:18:18;6.63;;;4.47;;
82495;SDS011;72133;42.522;24.800;2024-02-16T03:20:44;6.05;;;4.50;;
82495;SDS011;72133;42.522;24.800;2024-02-16T03:23:13;6.32;;;4.90;;
82495;SDS011;72133;42.522;24.800;2024-02-16T03:25:39;8.68;;;4.50;;
82495;SDS011;72133;42.522;24.800;2024-02-16T03:28:05;7.32;;;4.72;;
82495;SDS011;72133;42.522;24.800;2024-02-16T03:30:31;6.20;;;4.70;;
82495;SDS011;72133;42.522;24.800;2024-02-16T03:32:56;7.18;;;4.82;;
82495;SDS011;72133;42.522;24.800;2024-02-16T03:35:22;7.63;;;4.80;;
82495;SDS011;72133;42.522;24.800;2024-02-16T03:37:47;6.60;;;4.47;;
82495;SDS011;72133;42.522;24.800;2024-02-16T03:40:13;6.25;;;4.35;;
82495;SDS011;72133;42.522;24.800;2024-02-16T03:42:39;7.40;;;4.75;;
82495;SDS011;72133;42.522;24.800;2024-02-16T03:45:08;5.95;;;5.03;;
82495;SDS011;72133;42.522;24.800;2024-02-16T03:47:34;6.30;;;4.82;;
82495;SDS011;72133;42.522;24.800;2024-02-16T03:49:59;8.13;;;4.85;;
82495;SDS011;72133;42.522;24.800;2024-02-16T03:52:25;6.30;;;4.60;;
82495;SDS011;72133;42.522;24.800;2024-02-16T03:54:51;6.53;;;5.10;;
82495;SDS011;72133;42.522;24.800;2024-02-16T03:57:16;6.88;;;4.95;;
82495;SDS011;72133;42.522;24.800;2024-02-16T03:59:42;6.72;;;4.60;;
82495;SDS011;72133;42.522;24.800;2024-02-16T04:02:11;6.68;;;4.93;;
82495;SDS011;72133;42.522;24.800;2024-02-16T04:04:40;7.80;;;4.65;;
82495;SDS011;72133;42.522;24.800;2024-02-16T04:07:06;7.57;;;5.10;;
82495;SDS011;72133;42.522;24.800;2024-02-16T04:09:32;6.28;;;4.57;;
82495;SDS011;72133;42.522;24.800;2024-02-16T04:11:58;6.20;;;4.57;;
82495;SDS011;72133;42.522;24.800;2024-02-16T04:14:23;6.22;;;4.43;;
82495;SDS011;72133;42.522;24.800;2024-02-16T04:16:49;6.93;;;4.75;;
82495;SDS011;72133;42.522;24.800;2024-02-16T04:19:15;6.55;;;4.90;;
82495;SDS011;72133;42.522;24.800;2024-02-16T04:21:40;6.07;;;4.75;;
82495;SDS011;72133;42.522;24.800;2024-02-16T04:24:07;6.15;;;4.90;;
82495;SDS011;72133;42.522;24.800;2024-02-16T04:26:33;7.05;;;4.90;;
82495;SDS011;72133;42.522;24.800;2024-02-16T04:28:58;7.10;;;4.72;;
82495;SDS011;72133;42.522;24.800;2024-02-16T04:31:24;7.38;;;4.50;;
82495;SDS011;72133;42.522;24.800;2024-02-16T04:33:49;6.25;;;4.65;;
82495;SDS011;72133;42.522;24.800;2024-02-16T04:36:15;7.45;;;5.18;;
82495;SDS011;72133;42.522;24.800;2024-02-16T04:38:41;6.97;;;4.80;;
82495;SDS011;72133;42.522;24.800;2024-02-16T04:41:08;6.05;;;4.35;;
82495;SDS011;72133;42.522;24.800;2024-02-16T04:43:34;7.55;;;5.20;;
82495;SDS011;72133;42.522;24.800;2024-02-16T04:46:00;6.13;;;4.10;;
82495;SDS011;72133;42.522;24.800;2024-02-16T04:48:25;6.75;;;4.32;;
82495;SDS011;72133;42.522;24.800;2024-02-16T04:50:51;6.38;;;4.70;;
82495;SDS011;72133;42.522;24.800;2024-02-16T04:53:16;7.70;;;4.45;;
82495;SDS011;72133;42.522;24.800;2024-02-16T04:55:42;6.93;;;5.00;;
82495;SDS011;72133;42.522;24.800;2024-02-16T04:58:08;7.20;;;5.00;;
82495;SDS011;72133;42.522;24.800;2024-02-16T05:00:39;6.85;;;4.90;;
82495;SDS011;72133;42.522;24.800;2024-02-16T05:03:05;6.20;;;4.53;;
82495;SDS011;72133;42.522;24.800;2024-02-16T05:05:30;6.97;;;4.88;;
82495;SDS011;72133;42.522;24.800;2024-02-16T05:07:56;7.85;;;4.38;;
82495;SDS011;72133;42.522;24.800;2024-02-16T05:10:22;6.88;;;4.60;;
82495;SDS011;72133;42.522;24.800;2024-02-16T05:12:47;7.38;;;4.70;;
82495;SDS011;72133;42.522;24.800;2024-02-16T05:15:13;7.63;;;5.00;;
82495;SDS011;72133;42.522;24.800;2024-02-16T05:17:39;7.22;;;5.10;;
82495;SDS011;72133;42.522;24.800;2024-02-16T05:20:09;6.97;;;5.05;;
82495;SDS011;72133;42.522;24.800;2024-02-16T05:22:46;7.32;;;4.93;;
82495;SDS011;72133;42.522;24.800;2024-02-16T05:25:14;19.90;;;16.08;;
82495;SDS011;72133;42.522;24.800;2024-02-16T05:27:43;7.63;;;6.00;;
82495;SDS011;72133;42.522;24.800;2024-02-16T05:30:09;32.70;;;19.10;;
82495;SDS011;72133;42.522;24.800;2024-02-16T05:32:36;26.40;;;15.65;;
82495;SDS011;72133;42.522;24.800;2024-02-16T05:35:04;14.02;;;7.40;;
82495;SDS011;72133;42.522;24.800;2024-02-16T05:37:37;15.47;;;8.33;;
82495;SDS011;72133;42.522;24.800;2024-02-16T05:40:07;34.80;;;19.00;;
82495;SDS011;72133;42.522;24.800;2024-02-16T05:42:43;26.50;;;16.90;;
82495;SDS011;72133;42.522;24.800;2024-02-16T05:45:10;14.02;;;10.77;;
82495;SDS011;72133;42.522;24.800;2024-02-16T05:47:36;7.93;;;5.55;;
82495;SDS011;72133;42.522;24.800;2024-02-16T05:50:04;6.90;;;5.20;;
82495;SDS011;72133;42.522;24.800;2024-02-16T05:52:30;7.70;;;5.35;;
82495;SDS011;72133;42.522;24.800;2024-02-16T05:54:56;7.80;;;5.15;;
82495;SDS011;72133;42.522;24.800;2024-02-16T05:57:21;6.93;;;5.05;;
82495;SDS011;72133;42.522;24.800;2024-02-16T05:59:48;7.72;;;5.50;;
82495;SDS011;72133;42.522;24.800;2024-02-16T06:02:14;9.95;;;7.18;;
82495;SDS011;72133;42.522;24.800;2024-02-16T06:04:40;34.03;;;24.15;;
82495;SDS011;72133;42.522;24.800;2024-02-16T06:07:07;58.72;;;35.85;;
82495;SDS011;72133;42.522;24.800;2024-02-16T06:09:33;19.27;;;12.23;;
82495;SDS011;72133;42.522;24.800;2024-02-16T06:12:03;25.52;;;16.98;;
82495;SDS011;72133;42.522;24.800;2024-02-16T06:14:32;12.52;;;8.27;;
82495;SDS011;72133;42.522;24.800;2024-02-16T06:16:58;9.52;;;7.00;;
82495;SDS011;72133;42.522;24.800;2024-02-16T06:19:25;10.13;;;7.07;;
82495;SDS011;72133;42.522;24.800;2024-02-16T06:21:50;10.65;;;7.25;;
82495;SDS011;72133;42.522;24.800;2024-02-16T06:24:16;7.45;;;5.10;;
82495;SDS011;72133;42.522;24.800;2024-02-16T06:26:42;6.75;;;4.70;;
82495;SDS011;72133;42.522;24.800;2024-02-16T06:29:08;9.43;;;6.55;;
82495;SDS011;72133;42.522;24.800;2024-02-16T06:31:34;8.40;;;5.47;;
82495;SDS011;72133;42.522;24.800;2024-02-16T06:34:02;7.43;;;5.38;;
82495;SDS011;72133;42.522;24.800;2024-02-16T06:36:28;7.28;;;5.07;;
82495;SDS011;72133;42.522;24.800;2024-02-16T06:38:53;7.47;;;5.63;;
82495;SDS011;72133;42.522;24.800;2024-02-16T06:41:19;10.20;;;6.22;;
82495;SDS011;72133;42.522;24.800;2024-02-16T06:43:45;7.13;;;5.30;;
82495;SDS011;72133;42.522;24.800;2024-02-16T06:46:10;9.05;;;5.63;;
82495;SDS011;72133;42.522;24.800;2024-02-16T06:48:36;7.90;;;5.43;;
82495;SDS011;72133;42.522;24.800;2024-02-16T06:51:01;7.30;;;4.82;;
82495;SDS011;72133;42.522;24.800;2024-02-16T06:53:27;7.40;;;6.10;;
82495;SDS011;72133;42.522;24.800;2024-02-16T06:55:52;6.50;;;5.43;;
82495;SDS011;72133;42.522;24.800;2024-02-16T06:58:18;6.65;;;4.50;;
82495;SDS011;72133;42.522;24.800;2024-02-16T07:00:44;8.93;;;5.20;;
82495;SDS011;72133;42.522;24.800;2024-02-16T07:03:10;6.57;;;4.75;;
82495;SDS011;72133;42.522;24.800;2024-02-16T07:05:36;6.63;;;5.45;;
82495;SDS011;72133;42.522;24.800;2024-02-16T07:08:01;10.15;;;8.23;;
82495;SDS011;72133;42.522;24.800;2024-02-16T07:10:27;13.65;;;12.25;;
82495;SDS011;72133;42.522;24.800;2024-02-16T07:12:53;10.23;;;8.68;;
82495;SDS011;72133;42.522;24.800;2024-02-16T07:15:18;11.20;;;10.07;;
82495;SDS011;72133;42.522;24.800;2024-02-16T07:17:44;15.63;;;11.65;;
82495;SDS011;72133;42.522;24.800;2024-02-16T07:20:10;16.58;;;13.02;;
82495;SDS011;72133;42.522;24.800;2024-02-16T07:22:36;9.68;;;8.23;;
82495;SDS011;72133;42.522;24.800;2024-02-16T07:25:03;8.80;;;7.90;;
82495;SDS011;72133;42.522;24.800;2024-02-16T07:27:30;7.70;;;6.53;;
82495;SDS011;72133;42.522;24.800;2024-02-16T07:29:55;8.07;;;6.05;;
82495;SDS011;72133;42.522;24.800;2024-02-16T07:32:21;8.10;;;6.50;;
82495;SDS011;72133;42.522;24.800;2024-02-16T07:34:47;9.98;;;6.90;;
82495;SDS011;72133;42.522;24.800;2024-02-16T07:37:13;6.72;;;5.95;;
82495;SDS011;72133;42.522;24.800;2024-02-16T07:39:41;8.40;;;5.90;;
82495;SDS011;72133;42.522;24.800;2024-02-16T07:42:06;6.95;;;5.50;;
82495;SDS011;72133;42.522;24.800;2024-02-16T07:44:35;7.38;;;5.75;;
82495;SDS011;72133;42.522;24.800;2024-02-16T07:47:01;8.77;;;7.10;;
82495;SDS011;72133;42.522;24.800;2024-02-16T07:49:27;7.47;;;6.20;;
82495;SDS011;72133;42.522;24.800;2024-02-16T07:51:53;8.90;;;6.65;;
82495;SDS011;72133;42.522;24.800;2024-02-16T07:54:18;7.43;;;5.38;;
82495;SDS011;72133;42.522;24.800;2024-02-16T07:56:44;8.07;;;5.75;;
82495;SDS011;72133;42.522;24.800;2024-02-16T07:59:09;8.52;;;6.43;;
82495;SDS011;72133;42.522;24.800;2024-02-16T08:01:35;11.32;;;7.97;;
82495;SDS011;72133;42.522;24.800;2024-02-16T08:04:00;10.90;;;8.13;;
82495;SDS011;72133;42.522;24.800;2024-02-16T08:06:26;7.90;;;5.88;;
82495;SDS011;72133;42.522;24.800;2024-02-16T08:08:53;8.05;;;6.57;;
82495;SDS011;72133;42.522;24.800;2024-02-16T08:11:19;9.18;;;6.47;;
82495;SDS011;72133;42.522;24.800;2024-02-16T08:13:45;6.72;;;5.82;;
82495;SDS011;72133;42.522;24.800;2024-02-16T08:16:11;7.88;;;5.88;;
82495;SDS011;72133;42.522;24.800;2024-02-16T08:18:37;7.55;;;6.40;;
82495;SDS011;72133;42.522;24.800;2024-02-16T08:21:02;8.10;;;6.10;;
82495;SDS011;72133;42.522;24.800;2024-02-16T08:23:28;7.30;;;6.40;;
82495;SDS011;72133;42.522;24.800;2024-02-16T08:25:53;7.90;;;6.22;;
82495;SDS011;72133;42.522;24.800;2024-02-16T08:28:20;8.10;;;6.40;;
82495;SDS011;72133;42.522;24.800;2024-02-16T08:30:46;8.90;;;6.10;;
82495;SDS011;72133;42.522;24.800;2024-02-16T08:33:11;8.60;;;6.15;;
82495;SDS011;72133;42.522;24.800;2024-02-16T08:35:38;7.93;;;6.50;;
82495;SDS011;72133;42.522;24.800;2024-02-16T08:38:04;7.47;;;5.90;;
82495;SDS011;72133;42.522;24.800;2024-02-16T08:40:30;7.57;;;6.45;;
82495;SDS011;72133;42.522;24.800;2024-02-16T08:42:56;7.95;;;6.20;;
82495;SDS011;72133;42.522;24.800;2024-02-16T08:45:22;8.40;;;5.93;;
82495;SDS011;72133;42.522;24.800;2024-02-16T08:47:48;7.88;;;6.35;;
82495;SDS011;72133;42.522;24.800;2024-02-16T08:50:13;8.63;;;6.57;;
82495;SDS011;72133;42.522;24.800;2024-02-16T08:52:39;7.32;;;6.55;;
82495;SDS011;72133;42.522;24.800;2024-02-16T08:55:04;7.20;;;6.22;;
82495;SDS011;72133;42.522;24.800;2024-02-16T08:57:33;8.60;;;6.63;;
82495;SDS011;72133;42.522;24.800;2024-02-16T08:59:59;8.02;;;6.60;;
82495;SDS011;72133;42.522;24.800;2024-02-16T09:02:24;8.65;;;5.80;;
82495;SDS011;72133;42.522;24.800;2024-02-16T09:04:50;7.15;;;5.90;;
82495;SDS011;72133;42.522;24.800;2024-02-16T09:07:15;8.45;;;6.28;;
82495;SDS011;72133;42.522;24.800;2024-02-16T09:09:41;7.13;;;5.97;;
82495;SDS011;72133;42.522;24.800;2024-02-16T09:12:07;7.85;;;5.57;;
82495;SDS011;72133;42.522;24.800;2024-02-16T09:14:32;7.28;;;5.95;;
82495;SDS011;72133;42.522;24.800;2024-02-16T09:16:58;8.68;;;6.10;;
82495;SDS011;72133;42.522;24.800;2024-02-16T09:19:24;6.70;;;5.30;;
82495;SDS011;72133;42.522;24.800;2024-02-16T09:21:49;7.07;;;5.68;;
82495;SDS011;72133;42.522;24.800;2024-02-16T09:24:16;7.43;;;5.25;;
82495;SDS011;72133;42.522;24.800;2024-02-16T09:26:44;6.40;;;5.03;;
82495;SDS011;72133;42.522;24.800;2024-02-16T09:29:12;6.35;;;5.35;;
82495;SDS011;72133;42.522;24.800;2024-02-16T09:31:40;6.55;;;5.85;;
82495;SDS011;72133;42.522;24.800;2024-02-16T09:34:06;7.55;;;5.13;;
82495;SDS011;72133;42.522;24.800;2024-02-16T09:36:32;6.82;;;5.85;;
82495;SDS011;72133;42.522;24.800;2024-02-16T09:38:57;7.60;;;5.55;;
82495;SDS011;72133;42.522;24.800;2024-02-16T09:41:23;6.50;;;5.63;;
82495;SDS011;72133;42.522;24.800;2024-02-16T09:43:49;6.95;;;5.90;;
82495;SDS011;72133;42.522;24.800;2024-02-16T09:46:18;6.78;;;5.38;;
82495;SDS011;72133;42.522;24.800;2024-02-16T09:48:44;5.78;;;5.05;;
82495;SDS011;72133;42.522;24.800;2024-02-16T09:51:13;6.65;;;5.15;;
82495;SDS011;72133;42.522;24.800;2024-02-16T09:53:39;6.60;;;4.80;;
82495;SDS011;72133;42.522;24.800;2024-02-16T09:56:05;6.65;;;4.75;;
82495;SDS011;72133;42.522;24.800;2024-02-16T09:58:34;5.88;;;4.63;;
82495;SDS011;72133;42.522;24.800;2024-02-16T10:01:00;6.15;;;4.97;;
82495;SDS011;72133;42.522;24.800;2024-02-16T10:03:26;6.35;;;5.03;;
82495;SDS011;72133;42.522;24.800;2024-02-16T10:06:06;5.72;;;4.60;;
82495;SDS011;72133;42.522;24.800;2024-02-16T10:08:33;6.15;;;4.53;;
82495;SDS011;72133;42.522;24.800;2024-02-16T10:11:05;5.82;;;4.45;;
82495;SDS011;72133;42.522;24.800;2024-02-16T10:13:32;12.30;;;9.17;;
82495;SDS011;72133;42.522;24.800;2024-02-16T10:16:04;6.28;;;4.60;;
82495;SDS011;72133;42.522;24.800;2024-02-16T10:18:37;5.55;;;4.15;;
82495;SDS011;72133;42.522;24.800;2024-02-16T10:21:03;5.25;;;3.97;;
82495;SDS011;72133;42.522;24.800;2024-02-16T10:23:29;5.85;;;4.43;;
82495;SDS011;72133;42.522;24.800;2024-02-16T10:25:55;8.00;;;4.53;;
82495;SDS011;72133;42.522;24.800;2024-02-16T10:28:21;6.57;;;4.63;;
82495;SDS011;72133;42.522;24.800;2024-02-16T10:30:53;5.40;;;4.18;;
82495;SDS011;72133;42.522;24.800;2024-02-16T10:33:23;6.15;;;4.57;;
82495;SDS011;72133;42.522;24.800;2024-02-16T10:35:49;6.53;;;4.53;;
82495;SDS011;72133;42.522;24.800;2024-02-16T10:38:16;4.97;;;4.03;;
82495;SDS011;72133;42.522;24.800;2024-02-16T10:40:41;5.40;;;4.25;;
82495;SDS011;72133;42.522;24.800;2024-02-16T10:43:08;6.05;;;4.40;;
82495;SDS011;72133;42.522;24.800;2024-02-16T10:45:37;5.50;;;3.92;;
82495;SDS011;72133;42.522;24.800;2024-02-16T10:48:04;6.22;;;4.40;;
82495;SDS011;72133;42.522;24.800;2024-02-16T10:50:31;6.00;;;4.70;;
82495;SDS011;72133;42.522;24.800;2024-02-16T10:53:23;6.10;;;4.45;;
82495;SDS011;72133;42.522;24.800;2024-02-16T10:55:50;5.70;;;4.28;;
82495;SDS011;72133;42.522;24.800;2024-02-16T10:58:19;6.03;;;4.10;;
82495;SDS011;72133;42.522;24.800;2024-02-16T11:03:16;5.32;;;3.97;;
82495;SDS011;72133;42.522;24.800;2024-02-16T11:05:42;5.82;;;4.03;;
82495;SDS011;72133;42.522;24.800;2024-02-16T11:08:14;4.82;;;3.92;;
82495;SDS011;72133;42.522;24.800;2024-02-16T11:10:40;5.63;;;4.05;;
82495;SDS011;72133;42.522;24.800;2024-02-16T11:13:06;5.40;;;4.00;;
82495;SDS011;72133;42.522;24.800;2024-02-16T11:15:35;5.20;;;4.05;;
82495;SDS011;72133;42.522;24.800;2024-02-16T11:18:02;6.18;;;4.10;;
82495;SDS011;72133;42.522;24.800;2024-02-16T11:20:35;5.57;;;4.10;;
82495;SDS011;72133;42.522;24.800;2024-02-16T11:23:06;5.20;;;3.92;;
82495;SDS011;72133;42.522;24.800;2024-02-16T11:25:34;6.03;;;4.70;;
82495;SDS011;72133;42.522;24.800;2024-02-16T11:28:01;5.00;;;3.92;;
82495;SDS011;72133;42.522;24.800;2024-02-16T11:30:31;4.95;;;4.10;;
82495;SDS011;72133;42.522;24.800;2024-02-16T11:32:57;5.35;;;3.95;;
82495;SDS011;72133;42.522;24.800;2024-02-16T11:35:23;5.50;;;3.90;;
82495;SDS011;72133;42.522;24.800;2024-02-16T11:37:49;5.53;;;3.80;;
82495;SDS011;72133;42.522;24.800;2024-02-16T11:40:14;5.18;;;4.22;;
82495;SDS011;72133;42.522;24.800;2024-02-16T11:42:40;6.05;;;4.00;;
82495;SDS011;72133;42.522;24.800;2024-02-16T11:45:10;5.88;;;4.45;;
82495;SDS011;72133;42.522;24.800;2024-02-16T11:47:37;5.88;;;3.92;;
82495;SDS011;72133;42.522;24.800;2024-02-16T11:50:07;4.90;;;3.60;;
82495;SDS011;72133;42.522;24.800;2024-02-16T11:52:39;6.38;;;4.30;;
82495;SDS011;72133;42.522;24.800;2024-02-16T11:55:09;5.25;;;3.40;;
82495;SDS011;72133;42.522;24.800;2024-02-16T11:57:36;5.75;;;4.15;;
82495;SDS011;72133;42.522;24.800;2024-02-16T12:00:03;5.25;;;3.47;;
82495;SDS011;72133;42.522;24.800;2024-02-16T12:02:34;5.40;;;4.15;;
82495;SDS011;72133;42.522;24.800;2024-02-16T12:05:01;5.22;;;4.00;;
82495;SDS011;72133;42.522;24.800;2024-02-16T12:07:27;6.22;;;4.35;;
82495;SDS011;72133;42.522;24.800;2024-02-16T12:10:00;5.82;;;3.83;;
82495;SDS011;72133;42.522;24.800;2024-02-16T12:12:26;5.78;;;4.35;;
82495;SDS011;72133;42.522;24.800;2024-02-16T12:14:55;4.63;;;3.92;;
82495;SDS011;72133;42.522;24.800;2024-02-16T12:17:21;5.43;;;4.32;;
82495;SDS011;72133;42.522;24.800;2024-02-16T12:19:47;6.07;;;4.35;;
82495;SDS011;72133;42.522;24.800;2024-02-16T12:22:16;4.95;;;3.63;;
82495;SDS011;72133;42.522;24.800;2024-02-16T12:24:43;5.00;;;3.63;;
82495;SDS011;72133;42.522;24.800;2024-02-16T12:27:13;5.78;;;4.00;;
82495;SDS011;72133;42.522;24.800;2024-02-16T12:29:39;5.10;;;3.85;;
82495;SDS011;72133;42.522;24.800;2024-02-16T12:32:05;6.35;;;5.10;;
82495;SDS011;72133;42.522;24.800;2024-02-16T12:34:31;5.82;;;4.05;;
82495;SDS011;72133;42.522;24.800;2024-02-16T12:36:57;6.55;;;5.05;;
82495;SDS011;72133;42.522;24.800;2024-02-16T12:39:22;6.68;;;4.18;;
82495;SDS011;72133;42.522;24.800;2024-02-16T12:41:48;5.03;;;3.72;;
82495;SDS011;72133;42.522;24.800;2024-02-16T12:44:14;5.30;;;3.63;;
82495;SDS011;72133;42.522;24.800;2024-02-16T12:46:40;6.20;;;4.00;;
82495;SDS011;72133;42.522;24.800;2024-02-16T12:49:06;5.57;;;4.00;;
82495;SDS011;72133;42.522;24.800;2024-02-16T12:51:32;5.63;;;3.40;;
82495;SDS011;72133;42.522;24.800;2024-02-16T12:53:58;5.45;;;3.83;;
82495;SDS011;72133;42.522;24.800;2024-02-16T12:56:25;5.13;;;3.63;;
82495;SDS011;72133;42.522;24.800;2024-02-16T12:58:51;9.40;;;8.38;;
82495;SDS011;72133;42.522;24.800;2024-02-16T13:01:16;14.02;;;12.70;;
82495;SDS011;72133;42.522;24.800;2024-02-16T13:03:43;5.80;;;4.75;;
82495;SDS011;72133;42.522;24.800;2024-02-16T13:06:09;5.38;;;3.28;;
82495;SDS011;72133;42.522;24.800;2024-02-16T13:08:35;4.45;;;3.50;;
82495;SDS011;72133;42.522;24.800;2024-02-16T13:11:02;5.85;;;4.00;;
82495;SDS011;72133;42.522;24.800;2024-02-16T13:13:28;5.03;;;3.60;;
82495;SDS011;72133;42.522;24.800;2024-02-16T13:15:54;5.70;;;4.10;;
82495;SDS011;72133;42.522;24.800;2024-02-16T13:18:21;6.25;;;3.50;;
82495;SDS011;72133;42.522;24.800;2024-02-16T13:20:47;5.18;;;3.47;;
82495;SDS011;72133;42.522;24.800;2024-02-16T13:23:12;6.50;;;4.07;;
82495;SDS011;72133;42.522;24.800;2024-02-16T13:25:38;6.57;;;5.32;;
82495;SDS011;72133;42.522;24.800;2024-02-16T13:28:04;8.43;;;7.68;;
82495;SDS011;72133;42.522;24.800;2024-02-16T13:30:30;6.25;;;5.65;;
82495;SDS011;72133;42.522;24.800;2024-02-16T13:32:56;6.20;;;3.90;;
82495;SDS011;72133;42.522;24.800;2024-02-16T13:35:22;5.45;;;4.15;;
82495;SDS011;72133;42.522;24.800;2024-02-16T13:37:48;5.13;;;3.67;;
82495;SDS011;72133;42.522;24.800;2024-02-16T13:40:14;5.30;;;4.18;;
82495;SDS011;72133;42.522;24.800;2024-02-16T13:42:39;6.63;;;4.75;;
82495;SDS011;72133;42.522;24.800;2024-02-16T13:45:06;9.05;;;4.97;;
82495;SDS011;72133;42.522;24.800;2024-02-16T13:47:32;4.90;;;3.90;;
82495;SDS011;72133;42.522;24.800;2024-02-16T13:49:57;4.97;;;4.13;;
82495;SDS011;72133;42.522;24.800;2024-02-16T13:52:24;6.65;;;4.80;;
82495;SDS011;72133;42.522;24.800;2024-02-16T13:54:50;8.00;;;5.72;;
82495;SDS011;72133;42.522;24.800;2024-02-16T13:57:16;7.43;;;4.78;;
82495;SDS011;72133;42.522;24.800;2024-02-16T13:59:42;6.82;;;5.28;;
82495;SDS011;72133;42.522;24.800;2024-02-16T14:02:08;8.15;;;5.45;;
82495;SDS011;72133;42.522;24.800;2024-02-16T14:04:34;7.63;;;4.93;;
82495;SDS011;72133;42.522;24.800;2024-02-16T14:07:00;7.45;;;4.93;;
82495;SDS011;72133;42.522;24.800;2024-02-16T14:09:25;7.78;;;4.88;;
82495;SDS011;72133;42.522;24.800;2024-02-16T14:11:52;6.25;;;4.88;;
82495;SDS011;72133;42.522;24.800;2024-02-16T14:14:20;6.35;;;4.85;;
82495;SDS011;72133;42.522;24.800;2024-02-16T14:16:46;7.35;;;5.32;;
82495;SDS011;72133;42.522;24.800;2024-02-16T14:19:15;7.78;;;4.50;;
82495;SDS011;72133;42.522;24.800;2024-02-16T14:21:40;7.00;;;4.75;;
82495;SDS011;72133;42.522;24.800;2024-02-16T14:24:08;8.77;;;5.07;;
82495;SDS011;72133;42.522;24.800;2024-02-16T14:26:36;7.80;;;4.85;;
82495;SDS011;72133;42.522;24.800;2024-02-16T14:29:04;6.95;;;5.35;;
82495;SDS011;72133;42.522;24.800;2024-02-16T14:31:30;7.97;;;5.45;;